createdAt,value
2023-01-29T00:01:55.265Z,85.30
2023-01-29T00:04:22.411Z,84.80
2023-01-29T00:06:49.058Z,85.10
2023-01-29T00:09:15.803Z,84.80
2023-01-29T00:11:42.661Z,84.60
2023-01-29T00:14:09.339Z,84.70
2023-01-29T00:16:36.113Z,85.40
2023-01-29T00:19:03.780Z,85.60
2023-01-29T00:21:33.642Z,85.70
2023-01-29T00:24:00.873Z,85.60
2023-01-29T00:26:27.989Z,85.70
2023-01-29T00:28:57.104Z,85.10
2023-01-29T00:31:25.112Z,85.30
2023-01-29T00:33:52.323Z,85.40
2023-01-29T00:36:20.686Z,85.30
2023-01-29T00:38:54.666Z,84.70
2023-01-29T00:41:41.498Z,84.40
2023-01-29T00:44:27.343Z,84.40
2023-01-29T00:46:54.725Z,84.70
2023-01-29T00:49:21.793Z,84.60
2023-01-29T00:52:08.633Z,84.00
2023-01-29T00:54:35.549Z,84.20
2023-01-29T00:57:03.619Z,84.30
2023-01-29T00:59:30.695Z,83.70
2023-01-29T01:02:16.060Z,84.00
2023-01-29T01:04:42.778Z,84.80
2023-01-29T01:07:09.635Z,85.00
2023-01-29T01:09:55.595Z,85.20
2023-01-29T01:12:22.870Z,85.20
2023-01-29T01:14:50.029Z,85.50
2023-01-29T01:17:16.889Z,85.90
2023-01-29T01:19:43.598Z,86.10
2023-01-29T01:22:10.978Z,86.20
2023-01-29T01:24:37.933Z,85.90
2023-01-29T01:27:05.352Z,85.70
2023-01-29T01:29:32.339Z,85.60
2023-01-29T01:31:59.716Z,85.60
2023-01-29T01:34:29.382Z,85.80
2023-01-29T01:36:56.478Z,86.00
2023-01-29T01:39:24.373Z,85.80
2023-01-29T01:41:55.408Z,85.00
2023-01-29T01:44:56.012Z,84.60
2023-01-29T01:47:46.858Z,84.60
2023-01-29T01:50:23.121Z,85.00
2023-01-29T01:52:55.311Z,85.50
2023-01-29T01:55:26.411Z,85.50
2023-01-29T01:57:56.947Z,85.80
2023-01-29T02:00:26.136Z,85.80
2023-01-29T02:03:12.788Z,85.70
2023-01-29T02:05:59.362Z,85.50
2023-01-29T02:09:10.751Z,85.80
2023-01-29T02:11:38.263Z,85.30
2023-01-29T02:14:05.066Z,84.80
2023-01-29T02:16:34.515Z,85.30
2023-01-29T02:19:05.689Z,85.50
2023-01-29T02:21:52.539Z,85.50
2023-01-29T02:24:40.856Z,85.30
2023-01-29T02:27:33.670Z,85.10
2023-01-29T02:30:05.348Z,85.10
2023-01-29T02:32:58.532Z,84.50
2023-01-29T02:35:33.363Z,84.90
2023-01-29T02:38:12.906Z,85.10
2023-01-29T02:40:55.253Z,84.80
2023-01-29T02:43:55.779Z,84.70
2023-01-29T02:46:44.500Z,84.50
2023-01-29T02:49:26.584Z,84.30
2023-01-29T02:52:12.518Z,84.00
2023-01-29T02:54:51.120Z,84.00
2023-01-29T02:57:23.007Z,84.40
2023-01-29T02:59:55.973Z,84.50
2023-01-29T03:02:35.991Z,85.00
2023-01-29T03:05:08.434Z,85.00
2023-01-29T03:07:45.974Z,85.00
2023-01-29T03:10:30.953Z,85.30
2023-01-29T03:13:16.405Z,85.80
2023-01-29T03:15:51.192Z,85.70
2023-01-29T03:18:43.649Z,85.50
2023-01-29T03:21:36.121Z,85.00
2023-01-29T03:24:24.149Z,85.20
2023-01-29T03:27:11.523Z,85.30
2023-01-29T03:30:02.552Z,86.00
2023-01-29T03:32:48.538Z,86.40
2023-01-29T03:35:33.357Z,86.30
2023-01-29T03:38:02.047Z,86.30
2023-01-29T03:40:37.073Z,86.50
2023-01-29T03:43:25.697Z,86.80
2023-01-29T03:45:57.737Z,86.60
2023-01-29T03:48:40.151Z,87.00
2023-01-29T03:51:24.824Z,86.90
2023-01-29T03:54:01.381Z,86.90
2023-01-29T03:56:39.019Z,86.10
2023-01-29T03:59:16.021Z,86.30
2023-01-29T04:02:19.616Z,86.40
2023-01-29T04:04:50.133Z,86.20
2023-01-29T04:07:24.354Z,86.40
2023-01-29T04:10:02.331Z,86.70
2023-01-29T04:12:48.409Z,86.70
2023-01-29T04:15:16.949Z,86.90
2023-01-29T04:17:53.083Z,87.10
2023-01-29T04:20:43.646Z,87.20
2023-01-29T04:23:27.594Z,87.50
2023-01-29T04:26:21.836Z,87.70
2023-01-29T04:28:57.300Z,87.40
2023-01-29T04:31:28.758Z,87.30
2023-01-29T04:34:23.228Z,86.80
2023-01-29T04:37:15.752Z,86.80
2023-01-29T04:39:58.915Z,86.90
2023-01-29T04:42:37.036Z,87.20
2023-01-29T04:45:30.937Z,87.70
2023-01-29T04:48:21.854Z,88.10
2023-01-29T04:51:11.654Z,87.90
2023-01-29T04:54:06.120Z,88.00
2023-01-29T04:56:46.730Z,87.80
2023-01-29T04:59:20.887Z,87.90
2023-01-29T05:01:48.727Z,87.70
2023-01-29T05:04:19.745Z,88.00
2023-01-29T05:06:49.590Z,88.20
2023-01-29T05:09:17.474Z,88.00
2023-01-29T05:11:46.849Z,87.90
2023-01-29T05:14:17.689Z,87.40
2023-01-29T05:16:49.485Z,87.50
2023-01-29T05:19:17.170Z,87.60
2023-01-29T05:21:46.806Z,87.60
2023-01-29T05:24:20.545Z,87.10
2023-01-29T05:27:08.309Z,86.90
2023-01-29T05:29:35.380Z,86.30
2023-01-29T05:32:02.228Z,85.90
2023-01-29T05:34:28.948Z,85.70
2023-01-29T05:36:55.743Z,85.50
2023-01-29T05:39:22.586Z,85.50
2023-01-29T05:41:49.275Z,86.60
2023-01-29T05:44:15.932Z,86.50
2023-01-29T05:46:43.827Z,86.80
2023-01-29T05:49:10.844Z,87.00
2023-01-29T05:51:37.739Z,87.10
2023-01-29T05:54:05.072Z,87.30
2023-01-29T05:56:31.728Z,87.00
2023-01-29T05:58:58.407Z,87.20
2023-01-29T06:01:25.826Z,87.00
2023-01-29T06:03:52.584Z,86.90
2023-01-29T06:06:19.345Z,86.90
2023-01-29T06:08:46.832Z,87.00
2023-01-29T06:11:14.823Z,87.00
2023-01-29T06:13:41.553Z,87.40
2023-01-29T06:16:09.698Z,86.70
2023-01-29T06:18:37.540Z,86.20
2023-01-29T06:21:06.263Z,86.40
2023-01-29T06:23:33.156Z,86.50
2023-01-29T06:26:12.983Z,86.70
2023-01-29T06:28:40.262Z,87.10
2023-01-29T06:31:37.371Z,87.20
2023-01-29T06:33:54.862Z,87.70
2023-01-29T06:36:21.753Z,88.10
2023-01-29T06:38:48.502Z,88.10
2023-01-29T06:41:18.322Z,87.70
2023-01-29T06:43:45.589Z,87.30
2023-01-29T06:46:12.637Z,86.80
2023-01-29T06:48:39.721Z,86.60
2023-01-29T06:51:08.456Z,87.40
2023-01-29T06:53:36.672Z,88.20
2023-01-29T06:56:04.441Z,88.40
2023-01-29T06:58:31.407Z,88.00
2023-01-29T07:01:09.505Z,87.50
2023-01-29T07:03:36.674Z,87.30
2023-01-29T07:06:04.405Z,87.70
2023-01-29T07:08:31.472Z,87.70
2023-01-29T07:11:01.689Z,87.80
2023-01-29T07:13:28.669Z,87.80
2023-01-29T07:15:59.737Z,87.60
2023-01-29T07:18:27.452Z,87.40
2023-01-29T07:20:54.463Z,87.10
2023-01-29T07:23:21.753Z,87.30
2023-01-29T07:25:51.367Z,87.00
2023-01-29T07:28:20.822Z,86.80
2023-01-29T07:30:47.655Z,87.10
2023-01-29T07:33:14.520Z,87.20
2023-01-29T07:35:43.146Z,87.20
2023-01-29T07:38:11.049Z,87.40
2023-01-29T07:40:38.167Z,87.60
2023-01-29T07:43:07.496Z,87.60
2023-01-29T07:45:36.306Z,87.90
2023-01-29T07:48:05.055Z,88.30
2023-01-29T07:50:34.397Z,87.90
2023-01-29T07:53:01.512Z,87.70
2023-01-29T07:55:29.514Z,87.20
2023-01-29T07:58:00.941Z,87.00
2023-01-29T08:00:33.857Z,86.50
2023-01-29T08:03:11.684Z,86.30
2023-01-29T08:05:38.628Z,86.20
2023-01-29T08:08:07.626Z,86.20
2023-01-29T08:10:36.159Z,85.70
2023-01-29T08:13:03.486Z,85.40
2023-01-29T08:15:30.657Z,85.80
2023-01-29T08:17:58.613Z,85.60
2023-01-29T08:20:25.734Z,85.80
2023-01-29T08:23:00.116Z,86.10
2023-01-29T08:25:27.544Z,86.30
2023-01-29T08:27:55.770Z,86.10
2023-01-29T08:30:22.635Z,86.00
2023-01-29T08:32:49.297Z,86.10
2023-01-29T08:35:16.159Z,85.70
2023-01-29T08:37:42.932Z,85.40
2023-01-29T08:40:12.145Z,85.00
2023-01-29T08:42:39.002Z,84.80
2023-01-29T08:45:06.248Z,85.10
2023-01-29T08:47:33.224Z,85.20
2023-01-29T08:49:59.871Z,84.90
2023-01-29T08:52:26.597Z,84.60
2023-01-29T08:54:53.402Z,84.70
2023-01-29T08:57:20.360Z,84.40
2023-01-29T08:59:47.059Z,84.40
2023-01-29T09:02:14.074Z,84.40
2023-01-29T09:04:40.965Z,83.90
2023-01-29T09:07:07.665Z,83.30
2023-01-29T09:09:34.721Z,83.20
2023-01-29T09:12:01.629Z,83.00
2023-01-29T09:14:28.357Z,83.00
2023-01-29T09:16:55.314Z,82.90
2023-01-29T09:19:22.065Z,82.60
2023-01-29T09:21:49.517Z,82.10
2023-01-29T09:24:16.346Z,82.00
2023-01-29T09:26:43.330Z,82.50
2023-01-29T09:29:10.811Z,82.30
2023-01-29T09:31:37.805Z,81.80
2023-01-29T09:34:04.706Z,81.90
2023-01-29T09:36:31.458Z,82.00
2023-01-29T09:38:58.383Z,81.30
2023-01-29T09:41:37.495Z,81.40
2023-01-29T09:44:19.860Z,81.50
2023-01-29T09:46:48.788Z,81.30
2023-01-29T09:49:41.651Z,81.20
2023-01-29T09:52:26.448Z,81.10
2023-01-29T09:55:16.597Z,80.70
2023-01-29T09:57:51.852Z,80.00
2023-01-29T10:00:38.661Z,80.10
2023-01-29T10:03:11.401Z,80.30
2023-01-29T10:05:41.202Z,80.30
2023-01-29T10:09:02.038Z,80.40
2023-01-29T10:11:47.375Z,80.00
2023-01-29T10:14:26.457Z,79.20
2023-01-29T10:17:21.014Z,79.10
2023-01-29T10:20:25.204Z,78.90
2023-01-29T10:23:14.869Z,78.90
2023-01-29T10:25:45.005Z,78.20
2023-01-29T10:28:35.216Z,78.00
2023-01-29T10:31:10.070Z,77.50
2023-01-29T10:33:49.604Z,77.60
2023-01-29T10:36:32.626Z,77.00
2023-01-29T10:38:59.780Z,76.40
2023-01-29T10:42:05.526Z,76.60
2023-01-29T10:44:50.020Z,77.00
2023-01-29T10:47:53.872Z,77.60
2023-01-29T10:50:44.473Z,77.40
2023-01-29T10:53:42.867Z,78.50
2023-01-29T10:56:23.126Z,79.50
2023-01-29T10:59:00.705Z,79.60
2023-01-29T11:01:27.713Z,79.50
2023-01-29T11:03:58.484Z,80.20
2023-01-29T11:06:36.662Z,80.60
2023-01-29T11:09:09.741Z,80.30
2023-01-29T11:11:59.896Z,80.10
2023-01-29T11:14:44.083Z,80.20
2023-01-29T11:17:19.062Z,80.20
2023-01-29T11:19:48.171Z,79.70
2023-01-29T11:22:26.880Z,79.50
2023-01-29T11:25:16.475Z,79.10
2023-01-29T11:27:49.581Z,78.70
2023-01-29T11:30:43.437Z,78.70
2023-01-29T11:33:21.825Z,78.90
2023-01-29T11:35:48.747Z,79.60
2023-01-29T11:38:29.600Z,79.80
2023-01-29T11:41:06.675Z,79.40
2023-01-29T11:43:33.946Z,79.40
2023-01-29T11:46:02.513Z,79.20
2023-01-29T11:48:52.003Z,78.00
2023-01-29T11:51:25.728Z,78.30
2023-01-29T11:54:02.079Z,78.50
2023-01-29T11:56:45.248Z,78.30
2023-01-29T11:59:50.072Z,78.70
2023-01-29T12:02:35.501Z,79.10
2023-01-29T12:05:13.550Z,79.10
2023-01-29T12:07:42.960Z,79.30
2023-01-29T12:10:33.177Z,79.60
2023-01-29T12:13:28.285Z,78.90
2023-01-29T12:16:20.600Z,78.40
2023-01-29T12:19:09.159Z,78.10
2023-01-29T12:21:49.134Z,78.20
2023-01-29T12:24:37.898Z,78.70
2023-01-29T12:27:12.858Z,78.40
2023-01-29T12:30:06.240Z,78.50
2023-01-29T12:32:55.582Z,78.70
2023-01-29T12:35:27.966Z,78.10
2023-01-29T12:38:03.987Z,77.60
2023-01-29T12:40:55.179Z,77.90
2023-01-29T12:43:35.592Z,77.10
2023-01-29T12:46:03.955Z,76.30
2023-01-29T12:48:34.369Z,77.30
2023-01-29T12:54:05.171Z,77.20
2023-01-29T12:56:47.192Z,76.20
2023-01-29T12:59:36.748Z,77.10
2023-01-29T13:02:09.384Z,77.90
2023-01-29T13:04:46.541Z,78.20
2023-01-29T13:07:23.646Z,77.80
2023-01-29T13:10:00.652Z,77.20
2023-01-29T13:12:28.453Z,77.70
2023-01-29T13:15:02.813Z,78.40
2023-01-29T13:17:51.062Z,78.50
2023-01-29T13:20:22.947Z,78.20
2023-01-29T13:22:51.746Z,78.40
2023-01-29T13:25:20.050Z,78.20
2023-01-29T13:27:48.494Z,78.40
2023-01-29T13:30:30.568Z,79.10
2023-01-29T13:33:09.230Z,78.40
2023-01-29T13:35:42.708Z,78.00
2023-01-29T13:38:33.072Z,78.50
2023-01-29T13:41:08.612Z,78.30
2023-01-29T13:43:41.495Z,78.40
2023-01-29T13:46:18.607Z,78.50
2023-01-29T13:48:50.343Z,78.40
2023-01-29T13:51:21.870Z,78.50
2023-01-29T13:54:02.446Z,79.00
2023-01-29T13:56:35.144Z,79.80
2023-01-29T13:59:05.268Z,79.80
2023-01-29T14:01:47.315Z,80.30
2023-01-29T14:04:21.589Z,80.30
2023-01-29T14:06:53.454Z,80.70
2023-01-29T14:09:52.135Z,80.90
2023-01-29T14:12:21.773Z,81.10
2023-01-29T14:14:48.544Z,81.10
2023-01-29T14:17:17.619Z,81.10
2023-01-29T14:19:50.467Z,80.60
2023-01-29T14:22:27.500Z,80.40
2023-01-29T14:24:58.520Z,80.70
2023-01-29T14:27:25.792Z,80.90
2023-01-29T14:30:04.273Z,81.10
2023-01-29T14:32:31.327Z,81.30
2023-01-29T14:35:02.058Z,81.60
2023-01-29T14:37:33.814Z,81.80
2023-01-29T14:40:12.347Z,81.70
2023-01-29T14:42:47.740Z,81.90
2023-01-29T14:45:33.524Z,82.10
2023-01-29T14:48:09.544Z,82.40
2023-01-29T14:50:36.211Z,83.00
2023-01-29T14:53:34.249Z,83.20
2023-01-29T14:56:12.728Z,82.90
2023-01-29T14:58:44.072Z,82.50
2023-01-29T15:01:25.248Z,82.90
2023-01-29T15:04:12.123Z,83.20
2023-01-29T15:06:55.449Z,83.60
2023-01-29T15:09:47.372Z,83.90
2023-01-29T15:12:45.079Z,83.80
2023-01-29T15:15:34.038Z,84.00
2023-01-29T15:18:23.812Z,83.90
2023-01-29T15:21:02.269Z,83.70
2023-01-29T15:23:34.539Z,83.70
2023-01-29T15:26:03.589Z,83.30
2023-01-29T15:28:32.264Z,83.40
2023-01-29T15:31:01.739Z,83.90
2023-01-29T15:33:29.068Z,84.50
2023-01-29T15:36:06.814Z,84.40
2023-01-29T15:38:36.706Z,84.30
2023-01-29T15:41:21.328Z,84.20
2023-01-29T15:43:50.970Z,84.10
2023-01-29T15:46:25.581Z,84.10
2023-01-29T15:48:54.844Z,84.30
2023-01-29T15:51:25.140Z,84.10
2023-01-29T15:54:04.388Z,83.90
2023-01-29T15:56:36.836Z,84.00
2023-01-29T15:59:09.687Z,84.00
2023-01-29T16:01:36.775Z,84.00
2023-01-29T16:04:04.573Z,84.00
2023-01-29T16:06:37.508Z,84.30
2023-01-29T16:09:05.523Z,84.30
2023-01-29T16:11:34.041Z,84.40
2023-01-29T16:14:02.799Z,84.40
2023-01-29T16:16:29.608Z,84.60
2023-01-29T16:19:01.235Z,84.90
2023-01-29T16:21:37.160Z,85.50
2023-01-29T16:24:09.576Z,85.90
2023-01-29T16:26:48.808Z,85.80
2023-01-29T16:29:19.528Z,86.10
2023-01-29T16:31:48.109Z,86.70
2023-01-29T16:34:24.364Z,86.70
2023-01-29T16:36:53.425Z,87.00
2023-01-29T16:39:24.005Z,87.30
2023-01-29T16:42:10.771Z,87.40
2023-01-29T16:44:46.029Z,87.80
2023-01-29T16:47:15.635Z,87.70
2023-01-29T16:49:43.922Z,87.80
2023-01-29T16:52:17.079Z,87.90
2023-01-29T16:54:43.918Z,88.10
2023-01-29T16:57:18.096Z,88.20
2023-01-29T16:59:45.636Z,88.10
2023-01-29T17:02:33.432Z,88.10
2023-01-29T17:05:10.068Z,87.90
2023-01-29T17:07:37.732Z,88.00
2023-01-29T17:10:06.456Z,87.90
2023-01-29T17:12:34.326Z,88.20
2023-01-29T17:15:03.978Z,88.20
2023-01-29T17:17:39.800Z,88.30
2023-01-29T17:20:14.091Z,88.50
2023-01-29T17:22:41.007Z,88.60
2023-01-29T17:25:09.501Z,88.70
2023-01-29T17:27:41.675Z,88.60
2023-01-29T17:30:15.825Z,88.50
2023-01-29T17:32:44.071Z,88.50
2023-01-29T17:35:16.667Z,88.70
2023-01-29T17:37:44.307Z,88.80
2023-01-29T17:40:24.307Z,89.00
2023-01-29T17:42:51.036Z,89.40
2023-01-29T17:45:18.004Z,89.40
2023-01-29T17:47:44.837Z,89.30
2023-01-29T17:50:27.398Z,89.50
2023-01-29T17:52:54.385Z,89.70
2023-01-29T17:55:21.134Z,89.80
2023-01-29T17:57:47.841Z,89.70
2023-01-29T18:00:16.647Z,89.70
2023-01-29T18:02:43.493Z,89.60
2023-01-29T18:05:11.582Z,89.60
2023-01-29T18:07:39.812Z,89.80
2023-01-29T18:10:07.595Z,89.60
2023-01-29T18:12:34.322Z,89.30
2023-01-29T18:15:00.998Z,89.30
2023-01-29T18:17:29.251Z,89.60
2023-01-29T18:19:58.142Z,90.00
2023-01-29T18:22:24.996Z,90.30
2023-01-29T18:24:52.249Z,90.60
2023-01-29T18:27:19.466Z,90.70
2023-01-29T18:29:46.228Z,90.60
2023-01-29T18:32:12.950Z,90.40
2023-01-29T18:34:41.170Z,90.30
2023-01-29T18:37:07.982Z,90.40
2023-01-29T18:39:34.762Z,90.80
2023-01-29T18:42:01.454Z,90.90
2023-01-29T18:44:29.601Z,91.10
2023-01-29T18:46:56.339Z,91.40
2023-01-29T18:49:23.059Z,91.60
2023-01-29T18:51:49.729Z,91.70
2023-01-29T18:54:18.138Z,91.60
2023-01-29T18:57:13.752Z,91.60
2023-01-29T18:59:32.333Z,91.60
2023-01-29T19:01:59.113Z,91.30
2023-01-29T19:04:25.890Z,91.20
2023-01-29T19:06:52.650Z,91.30
2023-01-29T19:09:23.355Z,91.40
2023-01-29T19:11:54.293Z,91.70
2023-01-29T19:14:21.157Z,91.90
2023-01-29T19:16:48.125Z,92.30
2023-01-29T19:19:14.928Z,92.40
2023-01-29T19:21:41.736Z,92.10
2023-01-29T19:24:10.035Z,92.10
2023-01-29T19:26:37.215Z,92.20
2023-01-29T19:29:04.299Z,92.10
2023-01-29T19:31:31.956Z,91.90
2023-01-29T19:33:59.147Z,91.90
2023-01-29T19:36:26.017Z,91.80
2023-01-29T19:38:56.166Z,91.90
2023-01-29T19:41:24.884Z,91.70
2023-01-29T19:43:51.672Z,91.60
2023-01-29T19:46:18.467Z,91.60
2023-01-29T19:48:50.230Z,91.50
2023-01-29T19:51:21.371Z,91.60
2023-01-29T19:53:48.151Z,91.80
2023-01-29T19:56:17.069Z,91.80
2023-01-29T19:58:44.601Z,92.00
2023-01-29T20:01:18.516Z,91.60
2023-01-29T20:03:47.257Z,91.80
2023-01-29T20:06:16.253Z,92.00
2023-01-29T20:08:45.331Z,92.10
2023-01-29T20:11:17.750Z,92.10
2023-01-29T20:13:46.848Z,92.10
2023-01-29T20:16:13.694Z,92.00
2023-01-29T20:18:40.404Z,92.00
2023-01-29T20:21:13.107Z,92.30
2023-01-29T20:23:40.254Z,92.60
2023-01-29T20:26:15.647Z,92.60
2023-01-29T20:28:44.854Z,92.50
2023-01-29T20:31:11.596Z,92.40
2023-01-29T20:33:39.676Z,92.50
2023-01-29T20:36:09.051Z,92.40
2023-01-29T20:38:36.554Z,92.90
2023-01-29T20:41:04.186Z,92.90
2023-01-29T20:43:31.015Z,92.60
2023-01-29T20:45:58.292Z,92.90
2023-01-29T20:48:25.184Z,92.90
2023-01-29T20:50:52.339Z,92.80
2023-01-29T20:53:19.215Z,92.80
2023-01-29T20:55:46.297Z,92.60
2023-01-29T20:58:13.196Z,92.60
2023-01-29T21:00:40.219Z,92.60
2023-01-29T21:03:06.954Z,92.50
2023-01-29T21:05:33.770Z,92.80
2023-01-29T21:08:00.653Z,92.60
2023-01-29T21:10:27.462Z,92.80
2023-01-29T21:12:54.588Z,92.80
2023-01-29T21:15:21.909Z,92.70
2023-01-29T21:17:49.203Z,92.50
2023-01-29T21:20:16.438Z,92.40
2023-01-29T21:22:43.940Z,92.30
2023-01-29T21:25:11.352Z,92.30
2023-01-29T21:27:38.037Z,92.40
2023-01-29T21:30:05.307Z,92.80
2023-01-29T21:32:32.572Z,92.90
2023-01-29T21:35:02.606Z,92.80
2023-01-29T21:37:29.423Z,93.10
2023-01-29T21:39:56.080Z,93.10
2023-01-29T21:42:43.016Z,93.10
2023-01-29T21:45:10.144Z,93.00
2023-01-29T21:47:37.035Z,93.00
2023-01-29T21:50:04.155Z,93.00
2023-01-29T21:52:31.847Z,92.30
2023-01-29T21:54:58.602Z,92.00
2023-01-29T21:57:32.125Z,92.00
2023-01-29T21:59:59.371Z,92.30
2023-01-29T22:02:27.728Z,92.10
2023-01-29T22:05:05.282Z,92.00
2023-01-29T22:07:35.815Z,92.10
2023-01-29T22:10:09.496Z,92.00
2023-01-29T22:12:36.532Z,92.20
2023-01-29T22:15:03.505Z,92.30
2023-01-29T22:17:30.382Z,92.40
2023-01-29T22:19:57.123Z,92.60
2023-01-29T22:22:23.840Z,92.60
2023-01-29T22:24:52.491Z,92.80
2023-01-29T22:27:19.214Z,92.70
2023-01-29T22:29:45.883Z,92.80
2023-01-29T22:32:13.272Z,92.80
2023-01-29T22:34:40.041Z,92.10
2023-01-29T22:37:06.843Z,92.30
2023-01-29T22:39:33.618Z,92.70
2023-01-29T22:42:00.387Z,92.70
2023-01-29T22:44:27.115Z,92.70
2023-01-29T22:46:54.354Z,92.40
2023-01-29T22:49:21.201Z,92.50
2023-01-29T22:51:48.107Z,92.70
2023-01-29T22:54:15.607Z,93.00
2023-01-29T22:56:42.406Z,93.70
2023-01-29T22:59:10.008Z,94.00
2023-01-29T23:01:36.679Z,94.00
2023-01-29T23:04:03.419Z,93.90
2023-01-29T23:06:30.119Z,93.80
2023-01-29T23:08:56.888Z,93.70
2023-01-29T23:11:23.755Z,93.60
2023-01-29T23:13:55.156Z,93.60
2023-01-29T23:16:26.159Z,93.50
2023-01-29T23:18:55.446Z,93.40
2023-01-29T23:21:24.841Z,93.30
2023-01-29T23:24:01.382Z,92.50
2023-01-29T23:26:47.462Z,92.30
2023-01-29T23:29:14.573Z,92.90
2023-01-29T23:31:41.393Z,93.40
2023-01-29T23:34:08.563Z,93.50
2023-01-29T23:36:35.336Z,93.40
2023-01-29T23:39:02.094Z,93.30
2023-01-29T23:41:28.798Z,93.60
2023-01-29T23:43:55.460Z,94.00
2023-01-29T23:46:22.267Z,94.10
2023-01-29T23:48:49.001Z,94.20
2023-01-29T23:51:15.828Z,94.50
2023-01-29T23:53:42.546Z,94.50
2023-01-29T23:56:10.722Z,94.30
2023-01-29T23:58:37.727Z,93.70
